createdAt,value
2022-10-02T00:02:32.442Z,101349.41
2022-10-02T00:05:20.662Z,101353.75
2022-10-02T00:07:59.550Z,101356.38
2022-10-02T00:10:35.494Z,101362.47
2022-10-02T00:13:07.017Z,101357.19
2022-10-02T00:15:38.380Z,101359.81
2022-10-02T00:18:13.511Z,101363.28
2022-10-02T00:21:09.847Z,101373.69
2022-10-02T00:23:59.513Z,101371.94
2022-10-02T00:26:34.251Z,101388.44
2022-10-02T00:29:34.102Z,101381.50
2022-10-02T00:32:13.643Z,101367.63
2022-10-02T00:34:51.499Z,101370.22
2022-10-02T00:37:33.693Z,101389.31
2022-10-02T00:40:45.480Z,101391.94
2022-10-02T00:43:18.742Z,101391.13
2022-10-02T00:46:15.427Z,101391.94
2022-10-02T00:48:49.990Z,101401.50
2022-10-02T00:51:26.540Z,101396.25
2022-10-02T00:54:09.290Z,101404.09
2022-10-02T00:56:45.942Z,101399.69
2022-10-02T00:59:38.222Z,101395.38
2022-10-02T01:02:14.367Z,101397.06
2022-10-02T01:04:42.470Z,101397.97
2022-10-02T01:07:11.775Z,101400.56
2022-10-02T01:09:41.091Z,101398.81
2022-10-02T01:12:08.941Z,101392.72
2022-10-02T01:14:38.927Z,101398.78
2022-10-02T01:17:28.020Z,101393.56
2022-10-02T01:19:56.935Z,101396.16
2022-10-02T01:22:51.486Z,101407.44
2022-10-02T01:25:19.052Z,101401.31
2022-10-02T01:27:47.132Z,101399.56
2022-10-02T01:30:19.402Z,101400.41
2022-10-02T01:32:49.929Z,101400.41
2022-10-02T01:35:20.036Z,101408.22
2022-10-02T01:37:49.859Z,101400.38
2022-10-02T01:40:26.166Z,101409.06
2022-10-02T01:42:56.108Z,101409.06
2022-10-02T01:45:51.722Z,101414.34
2022-10-02T01:48:45.916Z,101416.97
2022-10-02T01:51:40.806Z,101410.03
2022-10-02T01:54:22.048Z,101407.41
2022-10-02T01:56:56.810Z,101415.25
2022-10-02T01:59:46.589Z,101416.97
2022-10-02T02:02:35.227Z,101418.69
2022-10-02T02:05:11.655Z,101426.50
2022-10-02T02:08:08.106Z,101418.66
2022-10-02T02:10:47.507Z,101424.72
2022-10-02T02:13:39.190Z,101434.28
2022-10-02T02:16:10.951Z,101436.88
2022-10-02T02:18:47.459Z,101436.91
2022-10-02T02:21:24.157Z,101431.66
2022-10-02T02:23:54.071Z,101434.25
2022-10-02T02:26:21.770Z,101429.03
2022-10-02T02:28:55.964Z,101426.34
2022-10-02T02:31:28.654Z,101436.78
2022-10-02T02:34:01.486Z,101426.34
2022-10-02T02:36:36.788Z,101429.81
2022-10-02T02:39:09.341Z,101424.53
2022-10-02T02:41:42.455Z,101424.63
2022-10-02T02:44:13.575Z,101435.06
2022-10-02T02:47:06.697Z,101424.59
2022-10-02T02:49:55.353Z,101433.34
2022-10-02T02:52:29.384Z,101427.28
2022-10-02T02:55:08.952Z,101434.25
2022-10-02T02:57:44.768Z,101438.59
2022-10-02T03:00:15.894Z,101431.66
2022-10-02T03:02:43.375Z,101426.50
2022-10-02T03:05:16.122Z,101421.31
2022-10-02T03:08:08.346Z,101430.03
2022-10-02T03:11:04.141Z,101436.13
2022-10-02T03:13:44.590Z,101423.97
2022-10-02T03:16:33.951Z,101430.94
2022-10-02T03:19:23.070Z,101433.56
2022-10-02T03:22:05.747Z,101434.44
2022-10-02T03:24:46.839Z,101421.38
2022-10-02T03:27:24.350Z,101432.66
2022-10-02T03:30:00.593Z,101442.25
2022-10-02T03:32:29.252Z,101436.22
2022-10-02T03:34:58.207Z,101446.59
2022-10-02T03:37:26.758Z,101448.38
2022-10-02T03:39:54.278Z,101446.63
2022-10-02T03:42:27.014Z,101447.50
2022-10-02T03:44:54.466Z,101451.00
2022-10-02T03:47:21.908Z,101451.00
2022-10-02T03:49:49.424Z,101463.22
2022-10-02T03:52:20.007Z,101468.44
2022-10-02T03:54:49.813Z,101452.78
2022-10-02T03:57:25.958Z,101456.28
2022-10-02T04:00:12.817Z,101461.50
2022-10-02T04:02:50.548Z,101468.44
2022-10-02T04:05:21.045Z,101457.16
2022-10-02T04:07:53.412Z,101466.72
2022-10-02T04:10:37.719Z,101466.78
2022-10-02T04:13:14.124Z,101469.38
2022-10-02T04:15:59.717Z,101465.06
2022-10-02T04:18:45.405Z,101464.19
2022-10-02T04:21:24.599Z,101469.41
2022-10-02T04:24:00.572Z,101459.00
2022-10-02T04:26:35.040Z,101463.34
2022-10-02T04:29:13.430Z,101462.50
2022-10-02T04:31:41.011Z,101463.34
2022-10-02T04:34:13.677Z,101459.91
2022-10-02T04:37:07.129Z,101466.84
2022-10-02T04:40:16.505Z,101469.44
2022-10-02T04:42:56.175Z,101479.03
2022-10-02T04:45:46.632Z,101479.91
2022-10-02T04:48:40.299Z,101493.84
2022-10-02T04:51:17.150Z,101486.00
2022-10-02T04:53:55.970Z,101484.25
2022-10-02T04:56:23.332Z,101492.06
2022-10-02T04:59:14.572Z,101486.84
2022-10-02T05:01:47.739Z,101485.13
2022-10-02T05:04:39.223Z,101501.63
2022-10-02T05:07:38.971Z,101510.34
2022-10-02T05:10:40.203Z,101509.47
2022-10-02T05:13:07.576Z,101519.00
2022-10-02T05:16:06.400Z,101525.94
2022-10-02T05:18:51.764Z,101534.66
2022-10-02T05:21:21.872Z,101545.97
2022-10-02T05:24:19.851Z,101550.31
2022-10-02T05:26:57.602Z,101552.03
2022-10-02T05:29:42.806Z,101560.72
2022-10-02T05:32:36.163Z,101552.00
2022-10-02T05:35:15.204Z,101558.97
2022-10-02T05:37:54.009Z,101552.00
2022-10-02T05:40:28.162Z,101548.56
2022-10-02T05:43:11.797Z,101550.28
2022-10-02T05:45:45.086Z,101536.38
2022-10-02T05:48:21.462Z,101552.94
2022-10-02T05:50:54.278Z,101552.94
2022-10-02T05:53:40.481Z,101554.66
2022-10-02T05:56:11.296Z,101554.66
2022-10-02T05:58:51.371Z,101545.97
2022-10-02T06:01:31.662Z,101543.34
2022-10-02T06:04:11.184Z,101545.97
2022-10-02T06:06:51.523Z,101539.88
2022-10-02T06:09:55.943Z,101561.63
2022-10-02T06:12:46.729Z,101541.59
2022-10-02T06:15:23.924Z,101555.53
2022-10-02T06:17:58.665Z,101557.25
2022-10-02T06:20:35.752Z,101565.97
2022-10-02T06:23:13.341Z,101574.63
2022-10-02T06:25:52.964Z,101561.63
2022-10-02T06:28:35.327Z,101565.09
2022-10-02T06:31:24.100Z,101553.81
2022-10-02T06:33:53.132Z,101558.16
2022-10-02T06:36:45.082Z,101565.97
2022-10-02T06:39:54.087Z,101578.09
2022-10-02T06:42:33.541Z,101583.31
2022-10-02T06:45:21.873Z,101586.78
2022-10-02T06:48:10.831Z,101603.28
2022-10-02T06:50:49.122Z,101593.72
2022-10-02T06:53:37.926Z,101604.13
2022-10-02T06:56:22.325Z,101612.81
2022-10-02T06:59:06.158Z,101623.22
2022-10-02T07:01:47.770Z,101619.72
2022-10-02T07:04:55.007Z,101621.44
2022-10-02T07:07:37.110Z,101623.16
2022-10-02T07:10:23.630Z,101629.19
2022-10-02T07:13:09.407Z,101623.09
2022-10-02T07:16:11.051Z,101626.53
2022-10-02T07:18:45.618Z,101629.13
2022-10-02T07:21:39.377Z,101630.84
2022-10-02T07:24:25.702Z,101639.53
2022-10-02T07:27:15.128Z,101627.31
2022-10-02T07:29:42.558Z,101632.50
2022-10-02T07:32:22.029Z,101626.38
2022-10-02T07:35:08.977Z,101639.44
2022-10-02T07:37:56.808Z,101644.63
2022-10-02T07:40:26.581Z,101641.97
2022-10-02T07:42:53.996Z,101645.41
2022-10-02T07:45:30.743Z,101648.81
2022-10-02T07:48:19.869Z,101642.66
2022-10-02T07:51:29.046Z,101646.88
2022-10-02T07:54:09.335Z,101649.41
2022-10-02T07:56:37.809Z,101649.28
2022-10-02T07:59:12.231Z,101653.50
2022-10-02T08:01:41.873Z,101642.88
2022-10-02T08:04:36.893Z,101644.53
2022-10-02T08:07:06.458Z,101644.41
2022-10-02T08:09:49.816Z,101653.16
2022-10-02T08:12:33.977Z,101650.53
2022-10-02T08:15:03.497Z,101660.00
2022-10-02T08:17:44.167Z,101660.00
2022-10-02T08:20:24.522Z,101670.34
2022-10-02T08:23:07.866Z,101661.56
2022-10-02T08:25:44.346Z,101669.31
2022-10-02T08:28:38.949Z,101673.66
2022-10-02T08:31:12.385Z,101673.63
2022-10-02T08:33:40.443Z,101680.41
2022-10-02T08:36:23.164Z,101675.16
2022-10-02T08:39:03.757Z,101668.78
2022-10-02T08:41:55.665Z,101686.94
2022-10-02T08:44:23.128Z,101683.16
2022-10-02T08:47:33.017Z,101686.53
2022-10-02T08:50:21.405Z,101695.91
2022-10-02T08:53:13.323Z,101701.81
2022-10-02T08:55:40.790Z,101698.06
2022-10-02T08:58:37.158Z,101704.78
2022-10-02T09:01:42.454Z,101708.78
2022-10-02T09:04:16.131Z,101702.22
2022-10-02T09:07:24.790Z,101703.72
2022-10-02T09:10:22.526Z,101700.13
2022-10-02T09:13:28.796Z,101706.81
2022-10-02T09:16:08.484Z,101701.31
2022-10-02T09:18:50.442Z,101694.75
2022-10-02T09:21:28.071Z,101713.94
2022-10-02T09:23:58.481Z,101714.91
2022-10-02T09:26:30.264Z,101719.66
2022-10-02T09:29:10.036Z,101718.44
2022-10-02T09:31:52.583Z,101725.63
2022-10-02T09:34:51.107Z,101714.00
2022-10-02T09:37:47.516Z,101714.88
2022-10-02T09:40:39.855Z,101715.44
2022-10-02T09:43:21.544Z,101724.16
2022-10-02T09:46:21.620Z,101723.69
2022-10-02T09:49:09.133Z,101720.28
2022-10-02T09:52:14.207Z,101719.19
2022-10-02T09:54:56.826Z,101711.28
2022-10-02T09:57:28.205Z,101716.16
2022-10-02T10:00:16.600Z,101730.19
2022-10-02T10:03:24.893Z,101719.91
2022-10-02T10:06:11.472Z,101736.09
2022-10-02T10:08:57.689Z,101746.19
2022-10-02T10:12:02.773Z,101736.25
2022-10-02T10:15:09.283Z,101735.03
2022-10-02T10:17:56.080Z,101740.66
2022-10-02T10:20:44.039Z,101738.66
2022-10-02T10:23:26.812Z,101745.94
2022-10-02T10:26:16.317Z,101740.03
2022-10-02T10:29:33.255Z,101753.72
2022-10-02T10:32:19.043Z,101756.00
2022-10-02T10:35:15.942Z,101755.88
2022-10-02T10:38:13.056Z,101766.34
2022-10-02T10:41:02.245Z,101778.50
2022-10-02T10:43:54.796Z,101767.94
2022-10-02T10:46:59.628Z,101777.81
2022-10-02T10:49:41.320Z,101779.38
2022-10-02T10:52:33.481Z,101780.88
2022-10-02T10:55:18.293Z,101781.09
2022-10-02T10:58:15.049Z,101790.69
2022-10-02T11:01:16.654Z,101790.94
2022-10-02T11:04:15.599Z,101790.22
2022-10-02T11:06:46.111Z,101783.84
2022-10-02T11:09:47.762Z,101800.47
2022-10-02T11:12:58.431Z,101796.38
2022-10-02T11:15:54.802Z,101800.22
2022-10-02T11:18:35.034Z,101803.72
2022-10-02T11:21:28.741Z,101822.69
2022-10-02T11:24:05.337Z,101811.81
2022-10-02T11:26:35.518Z,101818.00
2022-10-02T11:29:34.199Z,101822.34
2022-10-02T11:32:27.922Z,101821.94
2022-10-02T11:35:23.373Z,101823.47
2022-10-02T11:38:09.342Z,101832.47
2022-10-02T11:41:15.547Z,101827.75
2022-10-02T11:44:17.719Z,101836.03
2022-10-02T11:47:07.231Z,101837.22
2022-10-02T11:49:46.342Z,101838.38
2022-10-02T11:52:39.375Z,101836.06
2022-10-02T11:55:23.101Z,101832.53
2022-10-02T11:58:20.058Z,101835.09
2022-10-02T12:01:19.979Z,101834.03
2022-10-02T12:03:58.412Z,101837.44
2022-10-02T12:07:01.382Z,101839.53
2022-10-02T12:09:31.758Z,101841.59
2022-10-02T12:12:14.829Z,101844.84
2022-10-02T12:14:49.672Z,101835.16
2022-10-02T12:17:39.909Z,101842.53
2022-10-02T12:20:49.603Z,101840.25
2022-10-02T12:24:13.805Z,101843.13
2022-10-02T12:27:03.919Z,101844.22
2022-10-02T12:29:56.042Z,101855.44
2022-10-02T12:33:08.052Z,101851.19
2022-10-02T12:36:05.354Z,101865.22
2022-10-02T12:38:50.953Z,101870.03
2022-10-02T12:41:34.265Z,101868.69
2022-10-02T12:44:18.685Z,101876.63
2022-10-02T12:46:46.275Z,101868.88
2022-10-02T12:49:35.217Z,101867.44
2022-10-02T12:52:05.895Z,101869.41
2022-10-02T12:55:13.398Z,101868.09
2022-10-02T12:58:03.733Z,101874.38
2022-10-02T13:00:56.520Z,101880.56
2022-10-02T13:03:55.296Z,101881.66
2022-10-02T13:06:40.497Z,101879.72
2022-10-02T13:09:28.072Z,101873.91
2022-10-02T13:12:32.534Z,101889.94
2022-10-02T13:15:26.181Z,101873.75
2022-10-02T13:18:43.642Z,101886.34
2022-10-02T13:21:23.367Z,101881.13
2022-10-02T13:24:05.364Z,101887.66
2022-10-02T13:26:35.435Z,101886.09
2022-10-02T13:29:52.379Z,101887.09
2022-10-02T13:32:38.266Z,101887.25
2022-10-02T13:35:30.213Z,101898.38
2022-10-02T13:38:19.430Z,101891.50
2022-10-02T13:40:52.772Z,101894.69
2022-10-02T13:43:32.011Z,101889.16
2022-10-02T13:46:08.598Z,101893.41
2022-10-02T13:49:22.181Z,101910.34
2022-10-02T13:52:10.761Z,101922.38
2022-10-02T13:54:50.154Z,101926.19
2022-10-02T13:57:55.828Z,101922.31
2022-10-02T14:00:38.798Z,101921.72
2022-10-02T14:03:25.084Z,101921.22
2022-10-02T14:06:04.420Z,101915.34
2022-10-02T14:08:46.627Z,101918.75
2022-10-02T14:11:32.519Z,101923.09
2022-10-02T14:14:09.037Z,101934.13
2022-10-02T14:16:58.210Z,101933.38
2022-10-02T14:19:53.506Z,101932.53
2022-10-02T14:22:23.961Z,101939.41
2022-10-02T14:25:01.040Z,101934.31
2022-10-02T14:27:47.310Z,101943.47
2022-10-02T14:30:50.805Z,101944.16
2022-10-02T14:33:31.378Z,101950.41
2022-10-02T14:36:27.833Z,101942.25
2022-10-02T14:39:03.495Z,101954.94
2022-10-02T14:41:57.091Z,101960.28
2022-10-02T14:44:51.383Z,101956.69
2022-10-02T14:47:37.598Z,101957.44
2022-10-02T14:50:29.876Z,101966.13
2022-10-02T14:53:03.056Z,101961.75
2022-10-02T14:56:15.352Z,101975.72
2022-10-02T14:59:03.017Z,101969.81
2022-10-02T15:01:31.369Z,101968.81
2022-10-02T15:04:23.782Z,101971.38
2022-10-02T15:07:14.441Z,101974.16
2022-10-02T15:10:14.541Z,101980.34
2022-10-02T15:12:48.455Z,101983.03
2022-10-02T15:15:34.174Z,101975.13
2022-10-02T15:18:21.082Z,101982.25
2022-10-02T15:21:00.619Z,101992.03
2022-10-02T15:23:34.518Z,101990.25
2022-10-02T15:26:24.649Z,101990.38
2022-10-02T15:29:07.795Z,102002.72
2022-10-02T15:31:36.207Z,102001.19
2022-10-02T15:34:15.802Z,102003.03
2022-10-02T15:36:55.112Z,102010.97
2022-10-02T15:39:50.557Z,102021.47
2022-10-02T15:42:41.760Z,102031.19
2022-10-02T15:45:28.068Z,102039.97
2022-10-02T15:48:20.196Z,102040.91
2022-10-02T15:51:09.006Z,102043.59
2022-10-02T15:53:42.475Z,102047.19
2022-10-02T15:56:31.073Z,102052.53
2022-10-02T15:59:01.374Z,102051.59
2022-10-02T16:01:44.836Z,102049.00
2022-10-02T16:04:29.704Z,102064.66
2022-10-02T16:06:57.227Z,102064.72
2022-10-02T16:09:40.520Z,102066.50
2022-10-02T16:12:39.084Z,102073.56
2022-10-02T16:15:23.924Z,102080.63
2022-10-02T16:18:26.072Z,102084.22
2022-10-02T16:21:21.143Z,102087.75
2022-10-02T16:24:33.556Z,102093.94
2022-10-02T16:27:26.139Z,102091.38
2022-10-02T16:30:07.724Z,102094.91
2022-10-02T16:32:44.290Z,102101.94
2022-10-02T16:35:31.816Z,102109.81
2022-10-02T16:38:20.577Z,102108.09
2022-10-02T16:41:01.456Z,102117.75
2022-10-02T16:43:47.542Z,102122.09
2022-10-02T16:46:32.520Z,102127.34
2022-10-02T16:49:33.928Z,102125.63
2022-10-02T16:52:07.874Z,102138.75
2022-10-02T16:54:54.171Z,102131.78
2022-10-02T16:57:42.851Z,102151.91
2022-10-02T17:00:18.066Z,102158.00
2022-10-02T17:02:51.780Z,102165.88
2022-10-02T17:05:31.414Z,102164.13
2022-10-02T17:08:21.639Z,102168.53
2022-10-02T17:11:05.613Z,102179.00
2022-10-02T17:13:54.901Z,102177.25
2022-10-02T17:16:47.387Z,102179.00
2022-10-02T17:19:21.740Z,102188.59
2022-10-02T17:22:01.109Z,102193.78
2022-10-02T17:24:55.617Z,102195.53
2022-10-02T17:27:45.242Z,102210.34
2022-10-02T17:30:16.338Z,102205.09
2022-10-02T17:32:46.615Z,102218.19
2022-10-02T17:35:35.137Z,102219.06
2022-10-02T17:38:48.046Z,102232.06
2022-10-02T17:41:37.934Z,102222.47
2022-10-02T17:44:18.394Z,102238.13
2022-10-02T17:47:21.258Z,102232.88
2022-10-02T17:49:58.915Z,102234.63
2022-10-02T17:53:08.625Z,102238.94
2022-10-02T17:56:27.832Z,102240.63
2022-10-02T17:59:13.561Z,102249.31
2022-10-02T18:02:23.545Z,102251.00
2022-10-02T18:05:29.464Z,102259.72
2022-10-02T18:08:15.660Z,102264.88
2022-10-02T18:11:06.732Z,102266.59
2022-10-02T18:13:39.280Z,102278.75
2022-10-02T18:16:48.094Z,102275.28
2022-10-02T18:19:52.128Z,102284.81
2022-10-02T18:22:37.642Z,102289.16
2022-10-02T18:25:29.834Z,102286.47
2022-10-02T18:28:16.370Z,102281.22
2022-10-02T18:30:56.863Z,102282.94
2022-10-02T18:33:45.275Z,102285.47
2022-10-02T18:36:18.958Z,102287.16
2022-10-02T18:39:08.958Z,102290.59
2022-10-02T18:41:55.371Z,102293.13
2022-10-02T18:44:58.023Z,102298.28
2022-10-02T18:47:55.133Z,102310.34
2022-10-02T18:50:41.687Z,102312.03
2022-10-02T18:53:36.998Z,102304.13
2022-10-02T18:56:13.955Z,102313.69
2022-10-02T18:58:59.662Z,102322.34
2022-10-02T19:01:57.592Z,102324.00
2022-10-02T19:04:37.200Z,102317.00
2022-10-02T19:07:10.768Z,102320.44
2022-10-02T19:09:38.437Z,102320.34
2022-10-02T19:12:24.153Z,102325.50
2022-10-02T19:15:10.678Z,102328.03
2022-10-02T19:17:38.145Z,102345.38
2022-10-02T19:20:34.798Z,102340.09
2022-10-02T19:23:03.935Z,102344.34
2022-10-02T19:25:31.676Z,102351.25
2022-10-02T19:27:59.969Z,102345.97
2022-10-02T19:30:31.185Z,102364.22
2022-10-02T19:33:03.650Z,102356.34
2022-10-02T19:35:39.125Z,102327.31
2022-10-02T19:38:12.544Z,102376.22
2022-10-02T19:40:40.704Z,102371.81
2022-10-02T19:43:31.080Z,102373.44
2022-10-02T19:46:04.349Z,102380.38
2022-10-02T19:48:33.398Z,102387.28
2022-10-02T19:51:04.063Z,102395.03
2022-10-02T19:53:36.459Z,102392.41
2022-10-02T19:56:08.099Z,102384.56
2022-10-02T19:58:52.419Z,102381.88
2022-10-02T20:01:26.325Z,102401.84
2022-10-02T20:04:00.559Z,102402.72
2022-10-02T20:06:32.030Z,102406.06
2022-10-02T20:09:08.361Z,102397.25
2022-10-02T20:11:41.087Z,102404.25
2022-10-02T20:14:18.369Z,102413.75
2022-10-02T20:17:03.460Z,102414.56
2022-10-02T20:19:39.185Z,102407.56
2022-10-02T20:22:26.853Z,102412.72
2022-10-02T20:25:18.785Z,102417.03
2022-10-02T20:27:52.800Z,102416.09
2022-10-02T20:30:22.937Z,102423.00
2022-10-02T20:33:06.501Z,102424.66
2022-10-02T20:35:56.517Z,102426.25
2022-10-02T20:38:35.798Z,102436.59
2022-10-02T20:41:11.946Z,102446.88
2022-10-02T20:43:42.247Z,102445.03
2022-10-02T20:46:15.726Z,102451.94
2022-10-02T20:49:08.930Z,102453.72
2022-10-02T20:51:53.818Z,102458.00
2022-10-02T20:54:49.672Z,102458.78
2022-10-02T20:57:56.505Z,102470.88
2022-10-02T21:00:27.164Z,102472.59
2022-10-02T21:03:06.694Z,102486.47
2022-10-02T21:05:56.434Z,102490.78
2022-10-02T21:09:01.034Z,102488.22
2022-10-02T21:11:59.954Z,102500.34
2022-10-02T21:14:43.419Z,102503.72
2022-10-02T21:17:32.181Z,102502.81
2022-10-02T21:20:14.134Z,102502.75
2022-10-02T21:22:54.124Z,102496.63
2022-10-02T21:25:55.269Z,102502.66
2022-10-02T21:28:32.154Z,102508.66
2022-10-02T21:31:27.639Z,102507.78
2022-10-02T21:34:09.966Z,102504.25
2022-10-02T21:36:47.480Z,102508.53
2022-10-02T21:39:42.486Z,102521.56
2022-10-02T21:42:38.263Z,102524.06
2022-10-02T21:45:28.699Z,102524.00
2022-10-02T21:48:30.036Z,102535.19
2022-10-02T21:51:43.426Z,102539.41
2022-10-02T21:54:14.024Z,102539.25
2022-10-02T21:56:44.157Z,102538.31
2022-10-02T21:59:36.161Z,102544.38
2022-10-02T22:02:09.184Z,102546.16
2022-10-02T22:05:10.936Z,102546.16
2022-10-02T22:07:54.897Z,102553.91
2022-10-02T22:10:36.829Z,102554.72
2022-10-02T22:13:18.103Z,102551.25
2022-10-02T22:16:10.873Z,102545.09
2022-10-02T22:18:44.461Z,102539.03
2022-10-02T22:21:41.290Z,102552.00
2022-10-02T22:24:08.983Z,102545.81
2022-10-02T22:26:45.465Z,102550.13
2022-10-02T22:29:18.395Z,102550.91
2022-10-02T22:32:18.035Z,102549.06
2022-10-02T22:35:19.653Z,102551.63
2022-10-02T22:38:05.661Z,102560.22
2022-10-02T22:40:45.467Z,102564.47
2022-10-02T22:43:25.605Z,102564.34
2022-10-02T22:46:31.619Z,102566.00
2022-10-02T22:49:30.246Z,102570.25
2022-10-02T22:52:07.811Z,102572.81
2022-10-02T22:54:41.327Z,102577.94
2022-10-02T22:57:17.653Z,102577.97
2022-10-02T23:00:01.571Z,102583.13
2022-10-02T23:02:47.157Z,102578.72
2022-10-02T23:05:20.725Z,102573.41
2022-10-02T23:07:54.466Z,102571.66
2022-10-02T23:10:39.526Z,102566.38
2022-10-02T23:13:17.288Z,102567.13
2022-10-02T23:15:50.760Z,102577.53
2022-10-02T23:18:38.220Z,102578.31
2022-10-02T23:21:31.158Z,102577.41
2022-10-02T23:24:13.416Z,102586.00
2022-10-02T23:26:51.451Z,102589.41
2022-10-02T23:29:21.918Z,102588.56
2022-10-02T23:31:58.051Z,102587.63
2022-10-02T23:34:35.219Z,102591.03
2022-10-02T23:37:41.265Z,102599.66
2022-10-02T23:40:43.995Z,102594.31
2022-10-02T23:43:19.305Z,102584.69
2022-10-02T23:45:54.225Z,102583.81
2022-10-02T23:48:22.702Z,102586.44
2022-10-02T23:51:01.880Z,102586.28
2022-10-02T23:54:06.419Z,102587.25
2022-10-02T23:56:59.935Z,102575.69
2022-10-02T23:59:39.624Z,102586.25
